Wan Hai 508 — 9VJJ6 — position and weather

sailwx.info

Track history (hours):
 
Tides and Currents Weather Stations Pressure Air Temp Water Temp Dewpoint Dewpoint Depression Visibility Wind Speed Wind Dir Waves Ship Positions

Wan Hai 508

Last reported at 2015-Jan-16 04:33 UTC. Time now 2015-Jan-27 03:28 UTC.
Position N 01°55' E 102°20'.
Warning: this ship's position is 10 days out of date.

Length 269 m; draft 9 m.

Type: Ship. MMSI: 565567000.

Date/timePositionNaut miles runAvg speedWind from/ knotsBaromVisibWave heightAir tempDewpointWater temp
2015-Jan-16 04:33N 01°55' E 102°20'1817.5
2015-Jan-16 03:33N 01°47' E 102°36'1917.4
2015-Jan-16 02:29N 01°40' E 102°53'64 3.8
2015-Jan-15 09:25N 01°13' E 103°51'3 0.5
2015-Jan-15 02:29N 01°16' E 103°50'0 0.0
2015-Jan-14 22:23N 01°16' E 103°50'0 0.0
2015-Jan-14 19:29N 01°16' E 103°50'0 0.0
2015-Jan-14 16:23N 01°16' E 103°50'1 0.4
2015-Jan-14 14:29N 01°16' E 103°51'1 1.0
2015-Jan-14 13:33N 01°15' E 103°52'2 1.5
2015-Jan-14 12:22N 01°14' E 103°53'1 1.1
2015-Jan-14 11:33N 01°14' E 103°53'5 4.9
2015-Jan-14 10:31N 01°10' E 103°49'6 6.8
2015-Jan-14 09:34N 01°06' E 103°44'6815.6
2015-Jan-14 05:11N 01°40' E 102°45'1520.4
2015-Jan-14 04:27N 01°46' E 102°32'  
Track history (hours):
 
Tides and Currents Weather Stations Pressure Air Temp Water Temp Dewpoint Dewpoint Depression Visibility Wind Speed Wind Dir Waves Ship Positions

Wan Hai 508

Last reported at 2015-Jan-16 04:33 UTC. Time now 2015-Jan-27 03:28 UTC.
Position N 01°55' E 102°20'.
Warning: this ship's position is 10 days out of date.

Length 269 m; draft 9 m.

Type: Ship. MMSI: 565567000.

Date/timePositionNaut miles runAvg speedWind from/ knotsBaromVisibWave heightAir tempDewpointWater temp
2015-Jan-16 04:33N 01°55' E 102°20'1817.5
2015-Jan-16 03:33N 01°47' E 102°36'1917.4
2015-Jan-16 02:29N 01°40' E 102°53'64 3.8
2015-Jan-15 09:25N 01°13' E 103°51'3 0.5
2015-Jan-15 02:29N 01°16' E 103°50'0 0.0
2015-Jan-14 22:23N 01°16' E 103°50'0 0.0
2015-Jan-14 19:29N 01°16' E 103°50'0 0.0
2015-Jan-14 16:23N 01°16' E 103°50'1 0.4
2015-Jan-14 14:29N 01°16' E 103°51'1 1.0
2015-Jan-14 13:33N 01°15' E 103°52'2 1.5
2015-Jan-14 12:22N 01°14' E 103°53'1 1.1
2015-Jan-14 11:33N 01°14' E 103°53'5 4.9
2015-Jan-14 10:31N 01°10' E 103°49'6 6.8
2015-Jan-14 09:34N 01°06' E 103°44'6815.6
2015-Jan-14 05:11N 01°40' E 102°45'1520.4
2015-Jan-14 04:27N 01°46' E 102°32'  

Dump ship's entire track history